Time;durP1;ratioP1;P1;durP2;ratioP2;P2;SDS_P1;SDS_P2;PMS_P1;PMS_P2;Temp;Humidity;BMP_temperature;BMP_pressure;BME280_temperature;BME280_humidity;BME280_pressure;Samples;Min_cycle;Max_cycle;Signal;HPM_P1;HPM_P2
2022/11/25 00:00:53;;;;;;;;;;;;;;;1.67;100.00;96422.75;5094358;28;19980;-74
2022/11/25 00:03:19;;;;;;;;;;;;;;;1.67;100.00;96424.53;5095284;28;20006;-74
2022/11/25 00:05:45;;;;;;;;;;;;;;;1.65;100.00;96435.03;5093597;28;19956;-74
2022/11/25 00:08:10;;;;;;;;;;;;;;;1.64;100.00;96433.41;5095017;28;20051;-74
2022/11/25 00:10:36;;;;;;;;;;;;;;;1.62;100.00;96427.59;5095158;28;19953;-74
2022/11/25 00:13:02;;;;;;;;;;;;;;;1.61;100.00;96434.53;5094937;28;19960;-74
2022/11/25 00:15:28;;;;;;;;;;;;;;;1.62;100.00;96435.34;5094717;28;19953;-74
2022/11/25 00:17:54;;;;;;;;;;;;;;;1.61;100.00;96429.34;5095210;28;19947;-74
2022/11/25 00:20:21;;;;;;;;;;;;;;;1.62;100.00;96419.84;5094705;28;20018;-74
2022/11/25 00:22:47;;;;;;;;;;;;;;;1.62;100.00;96425.81;5094586;28;19951;-74
2022/11/25 00:25:13;;;;;;;;;;;;;;;1.63;100.00;96419.66;5093613;28;19959;-74
2022/11/25 00:27:38;;;;;;;;;;;;;;;1.66;100.00;96420.31;5094630;28;19995;-75
2022/11/25 00:30:05;;;;;;;;;;;;;;;1.69;100.00;96414.84;5094621;28;19981;-74
2022/11/25 00:32:30;;;;;;;;;;;;;;;1.72;100.00;96411.91;5094615;28;20426;-74
2022/11/25 00:34:56;;;;;;;;;;;;;;;1.75;100.00;96411.59;5092979;28;19988;-74
2022/11/25 00:37:22;;;;;;;;;;;;;;;1.77;100.00;96407.06;5094638;28;20449;-74
2022/11/25 00:39:48;;;;;;;;;;;;;;;1.79;100.00;96415.47;5094160;28;19963;-74
2022/11/25 00:44:58;;;;;;;;;;;;;;;1.83;100.00;96419.34;5087230;28;19953;-74
2022/11/25 00:47:24;;;;;;;;;;;;;;;1.85;100.00;96422.59;5094276;28;20294;-73
2022/11/25 00:49:52;;;;;;;;;;;;;;;1.86;100.00;96410.44;5094205;28;19953;-74
2022/11/25 00:52:19;;;;;;;;;;;;;;;1.88;100.00;96408.50;5094464;28;19952;-73
2022/11/25 00:54:46;;;;;;;;;;;;;;;1.89;100.00;96407.53;5094079;28;19955;-73
2022/11/25 00:57:13;;;;;;;;;;;;;;;1.90;100.00;96398.81;5093993;28;20445;-74
2022/11/25 00:59:39;;;;;;;;;;;;;;;1.91;100.00;96398.66;5094309;28;20309;-75
2022/11/25 01:02:06;;;;;;;;;;;;;;;1.93;100.00;96401.88;5092755;28;19950;-74
2022/11/25 01:04:32;;;;;;;;;;;;;;;1.95;100.00;96401.69;5094080;28;20363;-73
2022/11/25 01:06:58;;;;;;;;;;;;;;;1.97;100.00;96405.72;5094057;28;20414;-74
2022/11/25 01:09:25;;;;;;;;;;;;;;;2.01;100.00;96404.44;5093788;28;19952;-74
2022/11/25 01:11:51;;;;;;;;;;;;;;;2.03;100.00;96402.47;5092844;28;20304;-74
2022/11/25 01:14:18;;;;;;;;;;;;;;;2.06;100.00;96396.19;5093965;28;19960;-74
2022/11/25 01:16:43;;;;;;;;;;;;;;;2.08;100.00;96402.00;5094248;28;19957;-75
2022/11/25 01:19:10;;;;;;;;;;;;;;;2.09;100.00;96408.78;5093667;28;20415;-74
2022/11/25 01:21:36;;;;;;;;;;;;;;;2.09;100.00;96401.03;5093733;28;19956;-74
2022/11/25 01:24:03;;;;;;;;;;;;;;;2.09;100.00;96402.81;5092741;28;19957;-74
2022/11/25 01:26:30;;;;;;;;;;;;;;;2.07;100.00;96404.75;5092258;28;19960;-74
2022/11/25 01:28:57;;;;;;;;;;;;;;;2.05;100.00;96415.25;5093627;28;19952;-74
2022/11/25 01:31:24;;;;;;;;;;;;;;;2.03;100.00;96417.19;5093531;28;19958;-74
2022/11/25 01:33:54;;;;;;;;;;;;;;;2.02;100.00;96410.44;5093673;28;19969;-74
2022/11/25 01:36:20;;;;;;;;;;;;;;;2.01;100.00;96409.59;5093721;28;19947;-74
2022/11/25 01:38:49;;;;;;;;;;;;;;;2.01;100.00;96403.63;5093669;28;19984;-74
2022/11/25 01:41:15;;;;;;;;;;;;;;;1.99;100.00;96406.38;5092164;28;19964;-74
2022/11/25 01:43:41;;;;;;;;;;;;;;;1.98;100.00;96403.97;5093404;28;19954;-74
2022/11/25 01:46:28;;;;;;;;;;;;;;;1.96;100.00;96408.50;5093955;28;19993;-74
2022/11/25 01:48:56;;;;;;;;;;;;;;;1.92;100.00;96408.00;5083568;28;19952;-75
2022/11/25 01:51:39;;;;;;;;;;;;;;;1.91;100.00;96415.94;5084524;28;19951;-74
2022/11/25 01:54:07;;;;;;;;;;;;;;;1.88;100.00;96417.06;5088500;28;19959;-74
2022/11/25 01:56:38;;;;;;;;;;;;;;;1.88;100.00;96424.81;5097385;28;19953;-74
2022/11/25 01:59:04;;;;;;;;;;;;;;;1.88;100.00;96419.66;5097481;28;19958;-74
2022/11/25 02:01:30;;;;;;;;;;;;;;;1.87;100.00;96415.47;5097143;28;19975;-74
2022/11/25 02:03:57;;;;;;;;;;;;;;;1.87;100.00;96419.81;5097521;28;19956;-74
2022/11/25 02:06:27;;;;;;;;;;;;;;;1.86;100.00;96413.84;5097551;28;19962;-74
2022/11/25 02:08:55;;;;;;;;;;;;;;;1.86;100.00;96413.03;5097294;28;20306;-74
2022/11/25 02:11:23;;;;;;;;;;;;;;;1.87;100.00;96401.72;5097436;28;19947;-74
2022/11/25 02:13:50;;;;;;;;;;;;;;;1.88;100.00;96390.41;5097189;28;19959;-74
2022/11/25 02:16:16;;;;;;;;;;;;;;;1.87;100.00;96387.03;5097071;28;19975;-75
2022/11/25 02:18:41;;;;;;;;;;;;;;;1.84;100.00;96389.91;5097171;28;19980;-75
2022/11/25 02:21:08;;;;;;;;;;;;;;;1.83;100.00;96388.31;5097016;28;19970;-74
2022/11/25 02:23:43;;;;;;;;;;;;;;;1.83;100.00;96385.75;5097198;28;19948;-74
2022/11/25 02:26:09;;;;;;;;;;;;;;;1.83;100.00;96389.13;5096949;28;19945;-74
2022/11/25 02:28:35;;;;;;;;;;;;;;;1.85;100.00;96393.31;5095681;28;19949;-74
2022/11/25 02:31:01;;;;;;;;;;;;;;;1.83;100.00;96390.91;5095577;28;19965;-74
2022/11/25 02:33:27;;;;;;;;;;;;;;;1.83;100.00;96394.28;5096798;28;20042;-74
2022/11/25 02:35:56;;;;;;;;;;;;;;;1.82;100.00;96395.25;5096616;28;20442;-74
2022/11/25 02:38:36;;;;;;;;;;;;;;;1.81;100.00;96393.66;5096570;28;20311;-74
2022/11/25 02:41:09;;;;;;;;;;;;;;;1.82;100.00;96389.28;5095727;28;19964;-73
2022/11/25 02:43:35;;;;;;;;;;;;;;;1.80;100.00;96386.03;5096836;28;20407;-73
2022/11/25 02:46:03;;;;;;;;;;;;;;;1.80;100.00;96388.63;5095246;28;19952;-73
2022/11/25 02:48:30;;;;;;;;;;;;;;;1.80;100.00;96388.63;5095479;28;20425;-74
2022/11/25 02:50:57;;;;;;;;;;;;;;;1.79;100.00;96387.84;5096436;28;20293;-73
2022/11/25 02:53:23;;;;;;;;;;;;;;;1.80;100.00;96384.25;5096406;28;19975;-74
2022/11/25 02:55:49;;;;;;;;;;;;;;;1.80;100.00;96380.88;5096144;28;19950;-74
2022/11/25 02:58:15;;;;;;;;;;;;;;;1.80;100.00;96375.72;5096479;28;19983;-73
2022/11/25 03:00:41;;;;;;;;;;;;;;;1.81;100.00;96385.09;5095726;28;20309;-74
2022/11/25 03:03:08;;;;;;;;;;;;;;;1.96;100.00;96383.44;5096606;28;20333;-74
2022/11/25 03:05:34;;;;;;;;;;;;;;;2.10;100.00;96386.31;5094942;28;19956;-74
2022/11/25 03:07:59;;;;;;;;;;;;;;;2.25;100.00;96387.25;5094870;28;20037;-73
2022/11/25 03:10:25;;;;;;;;;;;;;;;2.27;100.00;96382.72;5094753;28;19956;-74
2022/11/25 03:12:51;;;;;;;;;;;;;;;2.25;100.00;96376.91;5096017;28;19983;-74
2022/11/25 03:15:17;;;;;;;;;;;;;;;2.22;100.00;96375.44;5096155;28;19948;-74
2022/11/25 03:17:43;;;;;;;;;;;;;;;2.19;100.00;96383.53;5095961;28;19948;-73
2022/11/25 03:20:11;;;;;;;;;;;;;;;2.14;100.00;96375.47;5095874;28;19983;-74
2022/11/25 03:22:38;;;;;;;;;;;;;;;2.12;100.00;96371.44;5095920;28;19977;-74
2022/11/25 03:25:04;;;;;;;;;;;;;;;2.11;100.00;96375.78;5082119;28;19949;-74
2022/11/25 03:27:32;;;;;;;;;;;;;;;2.09;100.00;96369.97;5095733;28;19952;-74
2022/11/25 03:29:58;;;;;;;;;;;;;;;2.08;100.00;96352.88;5095781;28;19953;-74
2022/11/25 03:32:24;;;;;;;;;;;;;;;2.07;100.00;96363.38;5095609;28;20003;-74
2022/11/25 03:34:49;;;;;;;;;;;;;;;2.06;100.00;96356.56;5094405;28;19971;-75
2022/11/25 03:37:15;;;;;;;;;;;;;;;2.05;100.00;96350.59;5094272;28;20089;-74
2022/11/25 03:39:41;;;;;;;;;;;;;;;2.05;100.00;96355.78;5095536;28;20404;-74
2022/11/25 03:42:07;;;;;;;;;;;;;;;2.06;100.00;96356.56;5094293;28;19948;-74
2022/11/25 03:44:33;;;;;;;;;;;;;;;2.02;100.00;96358.69;5095662;28;19957;-74
2022/11/25 03:46:59;;;;;;;;;;;;;;;1.98;100.00;96360.81;5094240;28;20397;-75
2022/11/25 03:49:25;;;;;;;;;;;;;;;1.97;100.00;96360.97;5095376;28;20043;-74
2022/11/25 03:51:51;;;;;;;;;;;;;;;1.97;100.00;96361.75;5095142;28;19987;-74
2022/11/25 03:54:17;;;;;;;;;;;;;;;1.97;100.00;96360.97;5095313;28;19951;-74
2022/11/25 03:56:42;;;;;;;;;;;;;;;1.99;100.00;96370.16;5095080;28;19953;-74
2022/11/25 03:59:08;;;;;;;;;;;;;;;2.00;100.00;96374.38;5095642;28;20030;-74
2022/11/25 04:01:34;;;;;;;;;;;;;;;2.01;100.00;96370.00;5094911;28;19962;-74
2022/11/25 04:04:00;;;;;;;;;;;;;;;2.04;100.00;96364.50;5095456;28;20008;-74
2022/11/25 04:06:26;;;;;;;;;;;;;;;2.07;100.00;96373.72;5095115;28;19962;-74
2022/11/25 04:08:52;;;;;;;;;;;;;;;2.08;100.00;96370.13;5094823;28;20386;-74
2022/11/25 04:11:18;;;;;;;;;;;;;;;2.09;100.00;96369.19;5094960;28;19958;-74
2022/11/25 04:13:44;;;;;;;;;;;;;;;2.07;100.00;96371.94;5092735;28;20321;-74
2022/11/25 04:16:22;;;;;;;;;;;;;;;2.06;100.00;96367.75;5094712;28;20025;-74
2022/11/25 04:18:48;;;;;;;;;;;;;;;2.05;100.00;96367.91;5093845;28;19941;-74
2022/11/25 04:21:14;;;;;;;;;;;;;;;2.04;100.00;96354.16;5094587;28;20050;-75
2022/11/25 04:23:40;;;;;;;;;;;;;;;2.02;100.00;96346.56;5094730;28;19956;-74
2022/11/25 04:26:06;;;;;;;;;;;;;;;2.02;100.00;96350.94;5093547;28;19997;-74
2022/11/25 04:28:32;;;;;;;;;;;;;;;2.01;100.00;96359.66;5094604;28;20044;-74
2022/11/25 04:30:57;;;;;;;;;;;;;;;1.99;100.00;96364.19;5094249;28;20045;-74
2022/11/25 04:33:23;;;;;;;;;;;;;;;1.96;100.00;96365.34;5092857;28;19992;-74
2022/11/25 04:35:49;;;;;;;;;;;;;;;1.92;100.00;96360.66;5076394;28;20415;-74
2022/11/25 04:38:15;;;;;;;;;;;;;;;1.87;100.00;96368.94;5094280;28;19953;-74
2022/11/25 04:40:41;;;;;;;;;;;;;;;1.83;100.00;96375.41;5094373;28;20287;-74
2022/11/25 04:43:09;;;;;;;;;;;;;;;1.80;100.00;96381.69;5094206;28;20042;-74
2022/11/25 04:45:34;;;;;;;;;;;;;;;1.78;100.00;96388.00;5094131;28;20325;-74
2022/11/25 04:48:00;;;;;;;;;;;;;;;1.77;100.00;96381.22;5094489;28;20044;-74
2022/11/25 04:50:26;;;;;;;;;;;;;;;1.75;100.00;96390.91;5093037;28;19991;-75
2022/11/25 04:52:52;;;;;;;;;;;;;;;1.74;100.00;96389.28;5094295;28;19946;-74
2022/11/25 04:55:18;;;;;;;;;;;;;;;1.67;100.00;96391.72;5094507;28;19945;-74
2022/11/25 04:57:44;;;;;;;;;;;;;;;1.61;100.00;96393.16;5094376;28;19954;-74
2022/11/25 05:00:10;;;;;;;;;;;;;;;1.57;100.00;96381.53;5094282;28;20481;-73
2022/11/25 05:02:36;;;;;;;;;;;;;;;1.55;100.00;96382.69;5094000;28;19944;-74
2022/11/25 05:05:02;;;;;;;;;;;;;;;1.55;100.00;96374.94;5093717;28;19953;-75
2022/11/25 05:07:29;;;;;;;;;;;;;;;1.53;100.00;96371.69;5093908;28;20322;-74
2022/11/25 05:09:55;;;;;;;;;;;;;;;1.52;100.00;96370.09;5092617;28;20390;-74
2022/11/25 05:12:22;;;;;;;;;;;;;;;1.50;100.00;96370.25;5094290;28;20337;-74
2022/11/25 05:14:48;;;;;;;;;;;;;;;1.51;100.00;96369.31;5093984;28;20412;-74
2022/11/25 05:17:18;;;;;;;;;;;;;;;1.49;100.00;96370.41;5092606;28;19959;-74
2022/11/25 05:19:45;;;;;;;;;;;;;;;1.47;100.00;96373.19;5093547;28;19947;-74
2022/11/25 05:22:11;;;;;;;;;;;;;;;1.45;100.00;96385.44;5093528;28;19963;-74
2022/11/25 05:24:37;;;;;;;;;;;;;;;1.41;100.00;96384.97;5093655;28;19945;-74
2022/11/25 05:27:03;;;;;;;;;;;;;;;1.40;100.00;96379.94;5082229;28;19993;-74
2022/11/25 05:29:29;;;;;;;;;;;;;;;1.39;100.00;96381.72;5092594;28;19961;-75
2022/11/25 05:31:55;;;;;;;;;;;;;;;1.39;100.00;96383.50;5093775;28;19943;-74
2022/11/25 05:34:20;;;;;;;;;;;;;;;1.39;100.00;96386.91;5092305;28;20014;-74
2022/11/25 05:36:46;;;;;;;;;;;;;;;1.40;100.00;96378.16;5093428;28;20038;-74
2022/11/25 05:39:12;;;;;;;;;;;;;;;1.41;100.00;96392.72;5092283;28;19959;-74
2022/11/25 05:41:38;;;;;;;;;;;;;;;1.42;100.00;96390.94;5093403;28;19967;-73
2022/11/25 05:44:04;;;;;;;;;;;;;;;1.42;100.00;96391.72;5093525;28;19956;-74
2022/11/25 05:46:30;;;;;;;;;;;;;;;1.41;100.00;96387.53;5093487;28;19994;-74
2022/11/25 05:48:56;;;;;;;;;;;;;;;1.39;100.00;96399.81;5093498;28;19962;-74
2022/11/25 05:51:23;;;;;;;;;;;;;;;1.37;100.00;96404.34;5093302;28;19966;-74
2022/11/25 05:53:49;;;;;;;;;;;;;;;1.36;100.00;96401.91;5093528;28;19954;-74
2022/11/25 05:56:15;;;;;;;;;;;;;;;1.35;100.00;96403.69;5093286;28;19942;-73
2022/11/25 05:58:42;;;;;;;;;;;;;;;1.34;100.00;96414.97;5093408;28;19946;-75
2022/11/25 06:01:09;;;;;;;;;;;;;;;1.34;100.00;96414.19;5092287;28;19985;-74
2022/11/25 06:03:35;;;;;;;;;;;;;;;1.34;100.00;96424.50;5093384;28;19953;-74
2022/11/25 06:06:01;;;;;;;;;;;;;;;1.32;100.00;96414.31;5092003;28;20430;-75
2022/11/25 06:08:27;;;;;;;;;;;;;;;1.31;100.00;96415.31;5093414;28;19951;-74
2022/11/25 06:10:53;;;;;;;;;;;;;;;1.31;100.00;96422.25;5093462;28;20375;-74
2022/11/25 06:13:19;;;;;;;;;;;;;;;1.29;100.00;96417.25;5093252;28;20407;-74
2022/11/25 06:15:46;;;;;;;;;;;;;;;1.28;100.00;96413.06;5093149;28;19951;-74
2022/11/25 06:18:12;;;;;;;;;;;;;;;1.26;100.00;96411.59;5093548;28;20303;-74
2022/11/25 06:20:38;;;;;;;;;;;;;;;1.25;100.00;96422.91;5093687;28;19969;-74
2022/11/25 06:23:04;;;;;;;;;;;;;;;1.23;100.00;96417.88;5091843;28;19956;-74
2022/11/25 06:25:30;;;;;;;;;;;;;;;1.25;100.00;96433.22;5093363;28;19955;-74
2022/11/25 06:27:57;;;;;;;;;;;;;;;1.21;100.00;96430.94;5093158;28;19966;-74
2022/11/25 06:30:23;;;;;;;;;;;;;;;1.20;100.00;96429.34;5093245;28;19951;-74
2022/11/25 06:32:49;;;;;;;;;;;;;;;1.19;100.00;96437.25;5092858;28;20363;-74
2022/11/25 06:35:15;;;;;;;;;;;;;;;1.19;100.00;96437.25;5092889;28;19987;-74
2022/11/25 06:37:41;;;;;;;;;;;;;;;1.17;100.00;96442.56;5096415;28;19954;-74
2022/11/25 06:40:07;;;;;;;;;;;;;;;1.19;100.00;96445.00;5096559;28;19946;-75
2022/11/25 06:42:33;;;;;;;;;;;;;;;1.18;100.00;96436.44;5096871;28;20333;-74
2022/11/25 06:44:59;;;;;;;;;;;;;;;1.20;100.00;96441.47;5095491;28;20408;-75
2022/11/25 06:47:25;;;;;;;;;;;;;;;1.22;100.00;96452.44;5096459;28;20029;-74
2022/11/25 06:49:51;;;;;;;;;;;;;;;1.25;100.00;96451.31;5096439;28;19943;-74
2022/11/25 06:52:17;;;;;;;;;;;;;;;1.26;100.00;96461.50;5096542;28;19948;-74
2022/11/25 06:54:44;;;;;;;;;;;;;;;1.87;100.00;96458.59;5095447;28;20031;-74
2022/11/25 06:57:11;;;;;;;;;;;;;;;2.06;100.00;96460.03;5096213;28;19950;-74
2022/11/25 06:59:37;;;;;;;;;;;;;;;2.02;100.00;96462.97;5094683;28;19957;-74
2022/11/25 07:02:03;;;;;;;;;;;;;;;1.96;100.00;96463.59;5096078;28;19969;-74
2022/11/25 07:04:29;;;;;;;;;;;;;;;1.92;100.00;96461.53;5096391;28;19944;-74
2022/11/25 07:06:55;;;;;;;;;;;;;;;1.90;100.00;96460.88;5096489;28;20416;-74
2022/11/25 07:09:21;;;;;;;;;;;;;;;1.87;100.00;96471.53;5094848;28;19981;-74
2022/11/25 07:11:47;;;;;;;;;;;;;;;2.32;100.00;96462.44;5096030;28;19948;-74
2022/11/25 07:14:14;;;;;;;;;;;;;;;3.32;100.00;96462.66;5096074;28;19947;-74
2022/11/25 07:16:41;;;;;;;;;;;;;;;3.80;100.00;96458.09;5096192;28;19965;-74
2022/11/25 07:19:07;;;;;;;;;;;;;;;3.71;100.00;96461.72;5095926;28;19948;-74
2022/11/25 07:21:33;;;;;;;;;;;;;;;3.48;100.00;96468.69;5095805;28;19964;-74
2022/11/25 07:24:01;;;;;;;;;;;;;;;3.20;100.00;96467.41;5095863;28;19956;-75
2022/11/25 07:26:28;;;;;;;;;;;;;;;3.00;100.00;96482.59;5095765;28;19945;-73
2022/11/25 07:28:56;;;;;;;;;;;;;;;2.87;100.00;96491.84;5095528;28;19949;-74
2022/11/25 07:31:24;;;;;;;;;;;;;;;2.74;100.00;96497.56;5095675;28;19946;-74
2022/11/25 07:33:53;;;;;;;;;;;;;;;2.63;100.00;96490.97;5076956;28;19978;-75
2022/11/25 07:36:19;;;;;;;;;;;;;;;2.53;100.00;96498.13;5095645;28;19955;-75
2022/11/25 07:38:45;;;;;;;;;;;;;;;2.50;100.00;96498.44;5094252;28;19992;-76
2022/11/25 07:41:13;;;;;;;;;;;;;;;2.62;100.00;96497.13;5095345;28;19954;-77
2022/11/25 07:43:39;;;;;;;;;;;;;;;2.68;100.00;96500.84;5094081;28;19957;-77
2022/11/25 07:46:09;;;;;;;;;;;;;;;2.70;100.00;96509.25;5095065;28;20436;-77
2022/11/25 07:48:35;;;;;;;;;;;;;;;2.68;100.00;96508.59;5078851;28;19954;-77
2022/11/25 07:51:00;;;;;;;;;;;;;;;2.94;100.00;96521.28;5094548;28;19965;-78
2022/11/25 07:53:26;;;;;;;;;;;;;;;3.09;100.00;96514.44;5077146;28;19996;-79
2022/11/25 07:55:52;;;;;;;;;;;;;;;3.10;100.00;96518.63;5066103;28;19957;-81
2022/11/25 07:58:18;;;;;;;;;;;;;;;3.07;100.00;96508.63;5077024;28;20095;-82
2022/11/25 08:00:44;;;;;;;;;;;;;;;3.05;100.00;96526.13;5060258;28;19952;-82
2022/11/25 08:03:10;;;;;;;;;;;;;;;3.01;100.00;96522.25;5095209;28;19952;-82
2022/11/25 08:05:36;;;;;;;;;;;;;;;2.98;100.00;96530.34;5084311;28;19982;-82
2022/11/25 08:08:02;;;;;;;;;;;;;;;2.95;100.00;96526.31;5076892;28;19983;-81
2022/11/25 08:10:28;;;;;;;;;;;;;;;2.94;100.00;96534.22;5093539;28;19954;-82
2022/11/25 08:12:53;;;;;;;;;;;;;;;2.92;100.00;96528.41;5094788;28;20395;-81
2022/11/25 08:15:19;;;;;;;;;;;;;;;2.96;100.00;96530.53;5076935;28;20015;-82
2022/11/25 08:17:45;;;;;;;;;;;;;;;3.00;100.00;96525.78;5060443;28;19997;-81
2022/11/25 08:20:11;;;;;;;;;;;;;;;3.03;100.00;96517.72;5093883;28;19956;-79
2022/11/25 08:22:37;;;;;;;;;;;;;;;3.07;100.00;96523.34;5093464;28;19967;-82
2022/11/25 08:25:03;;;;;;;;;;;;;;;3.10;100.00;96526.41;5076585;28;19960;-82
2022/11/25 08:27:29;;;;;;;;;;;;;;;3.15;100.00;96524.13;5076538;28;20388;-82
2022/11/25 08:29:55;;;;;;;;;;;;;;;3.22;100.00;96519.06;5059704;28;19999;-82
2022/11/25 08:32:21;;;;;;;;;;;;;;;3.26;100.00;96515.16;5095227;28;20008;-82
2022/11/25 08:34:46;;;;;;;;;;;;;;;3.33;100.00;96517.88;5094993;28;19969;-82
2022/11/25 08:37:12;;;;;;;;;;;;;;;3.39;100.00;96519.78;5093185;28;19955;-82
2022/11/25 08:39:38;;;;;;;;;;;;;;;3.42;100.00;96522.88;5076411;28;19947;-82
2022/11/25 08:42:05;;;;;;;;;;;;;;;3.47;100.00;96526.72;5093803;28;19973;-82
2022/11/25 08:44:31;;;;;;;;;;;;;;;3.52;100.00;96532.19;5093133;28;19943;-82
2022/11/25 08:46:57;;;;;;;;;;;;;;;3.56;100.00;96528.28;5094850;28;20355;-82
2022/11/25 08:49:25;;;;;;;;;;;;;;;3.59;100.00;96541.72;5081684;28;20395;-82
2022/11/25 08:51:51;;;;;;;;;;;;;;;3.61;100.00;96539.75;5093213;28;20418;-82
2022/11/25 08:54:17;;;;;;;;;;;;;;;3.65;100.00;96545.41;5076020;28;19951;-82
2022/11/25 08:56:43;;;;;;;;;;;;;;;3.64;100.00;96543.78;5092871;28;19964;-82
2022/11/25 08:59:09;;;;;;;;;;;;;;;3.65;100.00;96548.81;5092926;28;20334;-83
2022/11/25 09:01:34;;;;;;;;;;;;;;;3.67;100.00;96548.63;5092536;28;19961;-82
2022/11/25 09:04:00;;;;;;;;;;;;;;;3.70;100.00;96544.91;5094525;28;20006;-82
2022/11/25 09:06:27;;;;;;;;;;;;;;;3.74;100.00;96549.56;5094233;28;19961;-82
2022/11/25 09:08:56;;;;;;;;;;;;;;;3.79;100.00;96539.47;5094169;28;19952;-82
2022/11/25 09:11:23;;;;;;;;;;;;;;;3.85;100.00;96535.41;5092550;28;19950;-82
2022/11/25 09:13:48;;;;;;;;;;;;;;;3.92;100.00;96543.28;5092690;28;19956;-82
2022/11/25 09:16:14;;;;;;;;;;;;;;;3.97;100.00;96533.19;5093175;28;20039;-82
2022/11/25 09:18:40;;;;;;;;;;;;;;;4.04;100.00;96536.72;5075739;28;20042;-82
2022/11/25 09:21:10;;;;;;;;;;;;;;;4.12;100.00;96538.44;5092407;28;20013;-82
2022/11/25 09:23:37;;;;;;;;;;;;;;;4.19;100.00;96539.34;5076035;28;19955;-83
2022/11/25 09:26:04;;;;;;;;;;;;;;;4.23;100.00;96553.59;5093906;28;20354;-83
2022/11/25 09:28:30;;;;;;;;;;;;;;;4.25;100.00;96547.22;5094021;28;19975;-82
2022/11/25 09:30:56;;;;;;;;;;;;;;;4.26;100.00;96550.63;5092646;28;20421;-82
2022/11/25 09:33:22;;;;;;;;;;;;;;;4.29;100.00;96552.88;5075471;28;19973;-82
2022/11/25 09:35:49;;;;;;;;;;;;;;;4.38;100.00;96551.03;5093558;28;20398;-78
2022/11/25 09:38:15;;;;;;;;;;;;;;;5.07;100.00;96550.81;5092711;28;19985;-78
2022/11/25 09:40:46;;;;;;;;;;;;;;;5.83;100.00;96551.28;5084179;28;19960;-78
2022/11/25 09:46:40;;;;;;;;;;;;;;;7.14;100.00;96544.84;5078468;28;20303;-78
2022/11/25 09:49:19;;;;;;;;;;;;;;;7.53;100.00;96552.03;5094064;28;20321;-83
2022/11/25 09:51:51;;;;;;;;;;;;;;;7.35;97.85;96560.41;5092821;28;19953;-83
2022/11/25 09:54:20;;;;;;;;;;;;;;;7.02;99.75;96555.84;5094480;28;19946;-82
2022/11/25 09:56:58;;;;;;;;;;;;;;;6.80;100.00;96559.50;5076228;28;19945;-83
2022/11/25 09:59:30;;;;;;;;;;;;;;;6.75;100.00;96556.69;5095001;28;19953;-81
2022/11/25 10:02:01;;;;;;;;;;;;;;;6.86;100.00;96558.75;5094530;28;19962;-82
2022/11/25 10:04:53;;;;;;;;;;;;;;;7.01;100.00;96562.03;5092570;28;19953;-83
2022/11/25 10:07:32;;;;;;;;;;;;;;;7.26;100.00;96553.72;5081642;28;19955;-82
2022/11/25 10:10:00;;;;;;;;;;;;;;;7.43;100.00;96567.25;5075920;28;19943;-81
2022/11/25 10:12:28;;;;;;;;;;;;;;;7.42;99.68;96568.25;5095289;28;20422;-82
2022/11/25 10:14:59;;;;;;;;;;;;;;;7.32;96.92;96563.41;5079187;28;19951;-82
2022/11/25 10:17:38;;;;;;;;;;;;;;;7.24;97.21;96561.75;5096095;28;19950;-82
2022/11/25 10:20:16;;;;;;;;;;;;;;;7.05;95.59;96571.06;5066862;28;20379;-81
2022/11/25 10:22:44;;;;;;;;;;;;;;;6.98;99.54;96570.25;5096983;28;19977;-82
2022/11/25 10:25:19;;;;;;;;;;;;;;;7.03;100.00;96564.44;5096896;28;19947;-82
2022/11/25 10:27:44;;;;;;;;;;;;;;;7.07;100.00;96576.91;5078839;28;19951;-82
2022/11/25 10:30:14;;;;;;;;;;;;;;;7.02;100.00;96571.47;5095505;28;20016;-82
2022/11/25 10:32:42;;;;;;;;;;;;;;;6.87;98.22;96570.78;5095801;28;20316;-80
2022/11/25 10:35:29;;;;;;;;;;;;;;;6.75;99.56;96567.09;5095323;28;20365;-80
2022/11/25 10:37:57;;;;;;;;;;;;;;;6.62;100.00;96571.22;5096758;28;19947;-81
2022/11/25 10:40:23;;;;;;;;;;;;;;;6.55;100.00;96575.59;5096827;28;19949;-80
2022/11/25 10:42:48;;;;;;;;;;;;;;;6.52;100.00;96575.16;5095212;28;19980;-80
2022/11/25 10:45:14;;;;;;;;;;;;;;;6.52;100.00;96570.75;5095668;28;20430;-80
2022/11/25 10:47:49;;;;;;;;;;;;;;;6.50;100.00;96576.13;5095341;28;20042;-81
2022/11/25 10:50:34;;;;;;;;;;;;;;;6.47;100.00;96573.91;5095496;28;19945;-81
2022/11/25 10:53:15;;;;;;;;;;;;;;;6.50;100.00;96572.72;5115756;27;19955;-80
2022/11/25 10:55:55;;;;;;;;;;;;;;;6.55;100.00;96579.97;5078538;28;19952;-81
2022/11/25 10:58:30;;;;;;;;;;;;;;;6.56;100.00;96582.41;5095054;28;19947;-80
2022/11/25 11:01:06;;;;;;;;;;;;;;;6.59;100.00;96587.22;5096372;28;19960;-81
2022/11/25 11:03:33;;;;;;;;;;;;;;;6.62;100.00;96586.84;5094983;28;19950;-80
2022/11/25 11:05:59;;;;;;;;;;;;;;;6.66;100.00;96584.69;5095191;28;19955;-80
2022/11/25 11:08:45;;;;;;;;;;;;;;;6.66;100.00;96589.91;5078083;28;20007;-80
2022/11/25 11:11:16;;;;;;;;;;;;;;;6.66;100.00;96585.47;5094665;28;19956;-80
2022/11/25 11:13:42;;;;;;;;;;;;;;;6.67;100.00;96584.47;5078209;28;20309;-80
2022/11/25 11:16:35;;;;;;;;;;;;;;;6.65;100.00;96594.28;5094626;28;19951;-80
2022/11/25 11:19:01;;;;;;;;;;;;;;;6.63;100.00;96596.28;5091728;28;19961;-80
2022/11/25 11:21:34;;;;;;;;;;;;;;;6.62;100.00;96592.06;5095979;28;19962;-80
2022/11/25 11:24:01;;;;;;;;;;;;;;;6.58;100.00;96592.63;5095850;28;19950;-80
2022/11/25 11:26:32;;;;;;;;;;;;;;;6.58;100.00;96592.63;5095953;28;19949;-80
2022/11/25 11:29:03;;;;;;;;;;;;;;;6.59;100.00;96592.44;5095831;28;19950;-80
2022/11/25 11:31:31;;;;;;;;;;;;;;;6.64;100.00;96602.31;5095070;28;19952;-80
2022/11/25 11:34:00;;;;;;;;;;;;;;;6.66;100.00;96606.34;5095625;28;19971;-80
2022/11/25 11:36:38;;;;;;;;;;;;;;;6.71;100.00;96610.97;5095616;28;19948;-80
2022/11/25 11:39:36;;;;;;;;;;;;;;;6.76;100.00;96611.22;5095885;28;19961;-80
2022/11/25 11:42:08;;;;;;;;;;;;;;;6.80;100.00;96599.41;5071015;28;19958;-80
2022/11/25 11:44:34;;;;;;;;;;;;;;;6.85;100.00;96602.25;5094377;28;19951;-80
2022/11/25 11:47:00;;;;;;;;;;;;;;;6.90;100.00;96605.09;5077777;28;19957;-80
2022/11/25 11:49:32;;;;;;;;;;;;;;;6.93;100.00;96609.13;5094185;28;20147;-81
2022/11/25 11:52:08;;;;;;;;;;;;;;;7.01;100.00;96603.75;5095445;28;20396;-81
2022/11/25 11:54:43;;;;;;;;;;;;;;;7.10;100.00;96602.63;5095629;28;19946;-81
2022/11/25 11:57:18;;;;;;;;;;;;;;;7.21;100.00;96611.69;5077354;28;20325;-80
2022/11/25 11:59:48;;;;;;;;;;;;;;;7.32;100.00;96607.75;5093950;28;19943;-81
2022/11/25 12:02:14;;;;;;;;;;;;;;;7.45;100.00;96605.19;5095178;28;19969;-81
2022/11/25 12:04:49;;;;;;;;;;;;;;;7.55;100.00;96610.06;5095230;28;19953;-80
2022/11/25 12:07:21;;;;;;;;;;;;;;;7.63;100.00;96615.13;5093888;28;19953;-80
2022/11/25 12:09:51;;;;;;;;;;;;;;;7.67;100.00;96616.34;5084396;28;19947;-81
2022/11/25 12:12:20;;;;;;;;;;;;;;;7.71;100.00;96616.75;5091908;28;19958;-80
2022/11/25 12:14:50;;;;;;;;;;;;;;;7.74;100.00;96621.56;5088663;28;19956;-80
2022/11/25 12:17:27;;;;;;;;;;;;;;;7.72;100.00;96623.56;5093743;28;19956;-81
2022/11/25 12:20:06;;;;;;;;;;;;;;;7.68;100.00;96622.34;5094920;28;20310;-79
2022/11/25 12:22:35;;;;;;;;;;;;;;;7.65;100.00;96622.75;5089479;28;19956;-81
2022/11/25 12:25:24;;;;;;;;;;;;;;;7.64;100.00;96627.19;5094521;28;19959;-80
2022/11/25 12:28:00;;;;;;;;;;;;;;;7.62;100.00;96629.19;5092695;28;20307;-80
2022/11/25 12:30:32;;;;;;;;;;;;;;;7.60;100.00;96627.75;5075943;28;19957;-81
2022/11/25 12:33:09;;;;;;;;;;;;;;;7.58;100.00;96634.97;5085323;28;19953;-80
2022/11/25 12:35:35;;;;;;;;;;;;;;;7.58;100.00;96637.56;5092994;28;19956;-80
2022/11/25 12:38:16;;;;;;;;;;;;;;;7.55;100.00;96633.53;5093130;28;19950;-80
2022/11/25 12:40:48;;;;;;;;;;;;;;;7.56;100.00;96634.34;5090966;28;19952;-80
2022/11/25 12:43:14;;;;;;;;;;;;;;;7.57;100.00;96635.97;5094508;28;19957;-80
2022/11/25 12:45:42;;;;;;;;;;;;;;;7.61;100.00;96629.38;5091204;28;19958;-80
2022/11/25 12:48:10;;;;;;;;;;;;;;;7.66;100.00;96627.75;5092947;28;19951;-80
2022/11/25 12:50:39;;;;;;;;;;;;;;;7.69;100.00;96637.84;5074616;28;19942;-80
2022/11/25 12:53:12;;;;;;;;;;;;;;;7.69;100.00;96635.22;5086604;28;20349;-79
2022/11/25 12:55:39;;;;;;;;;;;;;;;7.71;100.00;96645.47;5075415;28;19950;-80
2022/11/25 12:58:05;;;;;;;;;;;;;;;7.72;100.00;96647.06;5072321;28;19950;-79